Time;durP1;ratioP1;P1;durP2;ratioP2;P2;SDS_P1;SDS_P2;PMS_P1;PMS_P2;Temp;Humidity;BMP_temperature;BMP_pressure;BME280_temperature;BME280_humidity;BME280_pressure;Samples;Min_cycle;Max_cycle;Signal;HPM_P1;HPM_P2
2022/06/30 00:01:02;;;;;;;3.50;3.20;;;;;;;19.94;72.73;97379.91;6228118;28;20284;-45
2022/06/30 00:04:05;;;;;;;4.17;3.20;;;;;;;19.93;73.01;97374.75;6229244;28;20239;-46
2022/06/30 00:07:07;;;;;;;3.53;3.20;;;;;;;19.89;73.33;97371.59;6228674;28;20243;-46
2022/06/30 00:10:11;;;;;;;4.20;3.80;;;;;;;19.89;73.19;97380.47;6212944;28;20283;-46
2022/06/30 00:13:14;;;;;;;5.63;3.63;;;;;;;19.93;73.12;97372.06;6218692;28;20243;-47
2022/06/30 00:16:16;;;;;;;3.60;3.30;;;;;;;19.94;72.79;97355.81;6228323;28;20317;-49
2022/06/30 00:19:19;;;;;;;5.27;3.60;;;;;;;19.89;73.35;97358.22;6228112;28;20231;-50
2022/06/30 00:22:21;;;;;;;4.23;3.83;;;;;;;19.81;73.92;97369.88;6228970;28;20224;-48
2022/06/30 00:25:24;;;;;;;5.57;3.77;;;;;;;19.78;73.83;97361.38;6228230;28;20243;-48
2022/06/30 00:28:26;;;;;;;4.33;3.80;;;;;;;19.83;73.69;97358.97;6228709;28;20236;-49
2022/06/30 00:31:28;;;;;;;5.23;3.70;;;;;;;19.86;73.35;97370.13;6229722;28;20235;-47
2022/06/30 00:34:31;;;;;;;3.93;3.53;;;;;;;19.87;73.43;97370.97;6229480;28;20715;-46
2022/06/30 00:37:33;;;;;;;3.27;2.97;;;;;;;19.78;73.72;97370.25;6227637;28;20235;-47
2022/06/30 00:40:41;;;;;;;4.40;3.93;;;;;;;19.76;73.86;97358.91;6232015;28;20623;-45
2022/06/30 00:43:45;;;;;;;4.57;3.80;;;;;;;19.80;73.83;97360.19;6211587;28;20228;-46
2022/06/30 00:46:48;;;;;;;4.57;4.10;;;;;;;19.83;73.92;97364.34;6228767;28;20227;-45
2022/06/30 00:49:51;;;;;;;5.10;4.10;;;;;;;19.88;73.76;97372.63;6227657;28;20228;-49
2022/06/30 00:53:08;;;;;;;6.83;4.03;;;;;;;19.94;73.99;97384.44;6211151;28;20238;-45
2022/06/30 00:56:10;;;;;;;4.83;3.70;;;;;;;19.96;73.85;97380.56;6228597;28;20235;-47
2022/06/30 00:59:15;;;;;;;3.93;3.50;;;;;;;19.99;73.75;97385.53;6207969;28;20266;-47
2022/06/30 01:02:27;;;;;;;4.30;3.63;;;;;;;19.98;73.73;97396.44;6229698;28;20231;-50
2022/06/30 01:05:29;;;;;;;4.27;3.80;;;;;;;19.93;73.98;97390.81;6233255;28;20255;-48
2022/06/30 01:08:32;;;;;;;4.03;3.73;;;;;;;19.88;74.23;97400.25;6233556;28;20231;-47
2022/06/30 01:14:58;;;;;;;5.67;3.80;;;;;;;19.78;74.27;97397.03;6232619;28;20267;-49
2022/06/30 01:18:00;;;;;;;3.10;2.80;;;;;;;19.74;74.65;97398.44;6233565;28;20227;-49
2022/06/30 01:21:03;;;;;;;3.37;3.07;;;;;;;19.71;74.54;97404.16;6232429;28;20285;-47
2022/06/30 01:24:05;;;;;;;4.07;3.40;;;;;;;19.70;75.00;97421.25;6233140;28;20235;-46
2022/06/30 01:27:07;;;;;;;4.37;3.43;;;;;;;19.65;75.28;97429.03;6233020;28;20208;-48
2022/06/30 01:30:10;;;;;;;5.43;3.20;;;;;;;19.59;75.28;97434.25;6209746;28;20215;-48
2022/06/30 01:33:13;;;;;;;3.13;2.83;;;;;;;19.56;75.74;97446.19;6227996;28;20250;-47
2022/06/30 01:36:15;;;;;;;5.17;4.00;;;;;;;19.55;75.70;97436.50;6232757;28;20216;-47
2022/06/30 01:39:17;;;;;;;5.30;3.40;;;;;;;19.52;75.86;97442.22;6231790;28;20219;-48
2022/06/30 01:42:20;;;;;;;3.80;3.50;;;;;;;19.44;76.27;97432.41;6233057;28;20235;-47
2022/06/30 01:45:23;;;;;;;4.23;3.83;;;;;;;19.39;77.28;97432.13;6231978;28;20227;-46
2022/06/30 01:48:25;;;;;;;4.00;3.60;;;;;;;19.42;77.13;97434.44;6232597;28;20321;-46
2022/06/30 01:51:27;;;;;;;4.07;3.67;;;;;;;19.49;77.04;97423.84;6208916;28;20608;-47
2022/06/30 01:54:29;;;;;;;5.83;3.80;;;;;;;19.57;76.97;97414.88;6214330;28;20301;-45
2022/06/30 01:57:31;;;;;;;6.23;3.90;;;;;;;19.52;77.10;97404.75;6232861;28;20224;-47
2022/06/30 02:00:33;;;;;;;4.13;3.80;;;;;;;19.46;77.36;97400.94;6231515;28;20228;-46
2022/06/30 02:03:36;;;;;;;4.13;3.23;;;;;;;19.51;77.18;97392.38;6232298;28;20223;-47
2022/06/30 02:06:38;;;;;;;4.37;3.97;;;;;;;19.49;76.89;97399.75;6231021;28;20220;-48
2022/06/30 02:09:40;;;;;;;4.33;3.33;;;;;;;19.46;76.98;97400.94;6230005;28;20277;-46
2022/06/30 02:12:46;;;;;;;3.43;3.13;;;;;;;19.43;77.17;97440.63;6232570;28;20236;-48
2022/06/30 02:15:48;;;;;;;3.60;3.30;;;;;;;19.42;76.87;97422.91;6231375;28;20297;-48
2022/06/30 02:18:50;;;;;;;5.90;3.60;;;;;;;19.44;76.46;97429.72;6231704;28;20223;-47
2022/06/30 02:21:52;;;;;;;4.23;3.33;;;;;;;19.46;76.32;97417.00;6230846;28;20773;-46
2022/06/30 02:24:54;;;;;;;5.63;4.00;;;;;;;19.51;75.90;97413.78;6231084;28;20281;-46
2022/06/30 02:27:56;;;;;;;4.13;3.47;;;;;;;19.53;75.71;97406.41;6231490;28;20266;-46
2022/06/30 02:30:59;;;;;;;4.20;3.30;;;;;;;19.49;75.70;97407.78;6231200;28;20233;-47
2022/06/30 02:34:01;;;;;;;5.00;3.40;;;;;;;19.35;76.42;97416.63;6231321;28;20611;-47
2022/06/30 02:37:03;;;;;;;6.67;3.40;;;;;;;19.32;76.36;97409.78;6213356;28;20240;-46
2022/06/30 02:40:06;;;;;;;4.20;3.53;;;;;;;19.33;76.47;97405.28;6230828;28;20750;-46
2022/06/30 02:43:08;;;;;;;5.37;3.60;;;;;;;19.35;76.48;97393.38;6229948;28;20771;-46
2022/06/30 02:46:10;;;;;;;4.70;3.70;;;;;;;19.29;76.74;97396.78;6230438;28;20401;-48
2022/06/30 02:49:12;;;;;;;3.73;3.43;;;;;;;19.26;77.19;97389.13;6230959;28;20246;-47
2022/06/30 02:52:14;;;;;;;4.00;3.60;;;;;;;19.21;77.57;97388.00;6230974;28;20258;-52
2022/06/30 02:55:16;;;;;;;4.03;3.63;;;;;;;19.13;77.94;97376.41;6230072;28;20322;-47
2022/06/30 02:58:18;;;;;;;4.23;3.43;;;;;;;19.16;78.08;97388.59;6230465;28;20723;-45
2022/06/30 03:01:20;;;;;;;3.70;3.20;;;;;;;19.20;77.74;97400.56;6229408;28;20328;-48
2022/06/30 03:04:22;;;;;;;3.47;3.17;;;;;;;19.26;77.73;97421.25;6231382;28;20230;-47
2022/06/30 03:07:25;;;;;;;3.20;2.90;;;;;;;19.30;77.66;97416.34;6230172;28;20235;-48
2022/06/30 03:10:27;;;;;;;5.10;3.40;;;;;;;19.38;77.44;97405.53;6230100;28;20238;-50
2022/06/30 03:13:29;;;;;;;4.63;3.43;;;;;;;19.38;77.40;97401.00;6231148;28;20595;-47
2022/06/30 03:16:31;;;;;;;4.53;3.77;;;;;;;19.38;77.33;97386.81;6229838;28;20301;-46
2022/06/30 03:19:34;;;;;;;3.80;3.43;;;;;;;19.43;77.31;97392.44;6229768;28;20718;-47
2022/06/30 03:22:35;;;;;;;3.40;3.10;;;;;;;19.39;77.15;97425.94;6228970;28;20235;-45
2022/06/30 03:25:38;;;;;;;3.37;3.07;;;;;;;19.32;77.44;97431.19;6229955;28;20731;-47
2022/06/30 03:28:39;;;;;;;3.50;3.30;;;;;;;19.31;77.68;97432.22;6229781;28;20723;-47
2022/06/30 03:31:41;;;;;;;3.50;3.20;;;;;;;19.27;77.81;97435.44;6228845;28;20777;-48
2022/06/30 03:34:43;;;;;;;3.50;3.20;;;;;;;19.22;78.10;97457.41;6212108;28;20228;-45
2022/06/30 03:37:46;;;;;;;3.20;3.00;;;;;;;19.26;77.80;97449.84;6211380;28;20239;-48
2022/06/30 03:40:48;;;;;;;3.97;3.60;;;;;;;19.36;77.49;97463.78;6229817;28;20230;-46
2022/06/30 03:43:50;;;;;;;3.47;3.17;;;;;;;19.46;77.24;97472.38;6229693;28;20231;-47
2022/06/30 03:46:52;;;;;;;4.30;3.43;;;;;;;19.56;76.95;97466.78;6228566;28;20236;-46
2022/06/30 03:49:57;;;;;;;3.50;3.20;;;;;;;19.67;76.85;97451.06;6228487;28;20231;-47
2022/06/30 03:53:00;;;;;;;5.73;3.50;;;;;;;19.88;76.20;97407.44;6229378;28;20230;-47
2022/06/30 03:56:02;;;;;;;4.00;3.70;;;;;;;20.08;75.34;97372.84;6228884;28;20231;-46
2022/06/30 03:59:04;;;;;;;3.43;3.13;;;;;;;20.04;75.79;97348.28;6229161;28;20219;-49
2022/06/30 04:02:06;;;;;;;3.67;3.37;;;;;;;20.03;76.15;97330.56;6210406;28;20746;-47
2022/06/30 04:05:09;;;;;;;5.13;3.33;;;;;;;20.07;75.89;97320.28;6211244;28;20629;-48
2022/06/30 04:08:11;;;;;;;3.67;3.37;;;;;;;20.16;75.86;97317.28;6229095;28;20254;-47
2022/06/30 04:11:13;;;;;;;4.07;3.77;;;;;;;20.15;75.83;97315.63;6228075;28;20220;-46
2022/06/30 04:14:15;;;;;;;3.90;2.97;;;;;;;20.15;76.53;97317.50;6228436;28;20731;-46
2022/06/30 04:17:17;;;;;;;3.93;3.60;;;;;;;20.18;76.64;97317.09;6228255;28;20231;-48
2022/06/30 04:20:20;;;;;;;3.30;3.00;;;;;;;20.21;76.62;97330.09;6229377;28;20601;-47
2022/06/30 04:23:22;;;;;;;3.60;3.13;;;;;;;20.23;76.78;97362.91;6227834;28;20331;-47
2022/06/30 04:26:24;;;;;;;5.80;3.73;;;;;;;20.19;76.79;97375.00;6228604;28;20225;-45
2022/06/30 04:29:26;;;;;;;4.40;3.67;;;;;;;20.23;76.35;97398.56;6228666;28;20272;-46
2022/06/30 04:32:40;;;;;;;3.60;3.30;;;;;;;20.30;75.71;97428.13;6227749;28;20727;-47
2022/06/30 04:35:42;;;;;;;3.83;3.43;;;;;;;20.42;75.24;97434.66;6209795;28;20773;-47
2022/06/30 04:38:44;;;;;;;3.30;3.00;;;;;;;20.54;74.92;97411.69;6233705;28;20231;-46
2022/06/30 04:41:46;;;;;;;3.67;3.03;;;;;;;20.65;74.65;97410.34;6232430;28;20314;-46
2022/06/30 04:44:48;;;;;;;3.53;2.90;;;;;;;20.84;74.22;97411.53;6227312;28;20313;-46
2022/06/30 04:47:50;;;;;;;3.30;3.00;;;;;;;20.96;73.62;97416.16;6228958;28;20782;-46
2022/06/30 04:50:52;;;;;;;3.83;3.33;;;;;;;21.02;72.96;97424.47;6221089;28;20235;-46
2022/06/30 04:53:54;;;;;;;3.57;3.27;;;;;;;21.06;72.95;97436.47;6228490;28;20227;-48
2022/06/30 04:56:56;;;;;;;3.20;2.90;;;;;;;21.16;72.55;97431.59;6230976;28;20322;-48
2022/06/30 04:59:59;;;;;;;3.67;3.30;;;;;;;21.26;72.36;97426.75;6227396;28;20599;-46
2022/06/30 05:03:02;;;;;;;3.17;2.97;;;;;;;21.34;72.22;97429.28;6226588;28;20239;-46
2022/06/30 05:06:05;;;;;;;3.40;3.10;;;;;;;21.38;72.30;97418.94;6227367;28;20825;-48
2022/06/30 05:09:07;;;;;;;3.50;3.10;;;;;;;21.33;72.61;97398.91;6227934;28;20559;-46
2022/06/30 05:12:10;;;;;;;2.83;2.63;;;;;;;21.27;72.70;97394.31;6227632;28;20216;-45
2022/06/30 05:15:12;;;;;;;3.53;2.73;;;;;;;21.36;73.39;97401.19;6227196;28;20235;-47
2022/06/30 05:18:14;;;;;;;3.00;2.80;;;;;;;21.47;73.24;97404.34;6227556;28;20247;-50
2022/06/30 05:21:16;;;;;;;3.53;3.23;;;;;;;21.59;72.88;97392.84;6227311;28;20228;-46
2022/06/30 05:27:39;;;;;;;3.33;3.03;;;;;;;21.78;72.37;97393.13;6227926;28;20711;-47
2022/06/30 05:30:41;;;;;;;3.47;3.17;;;;;;;21.85;72.15;97389.44;6227676;28;20239;-47
2022/06/30 05:33:43;;;;;;;3.43;3.13;;;;;;;21.95;71.76;97402.50;6227813;28;20243;-49
2022/06/30 05:36:45;;;;;;;3.57;3.27;;;;;;;22.01;71.90;97405.25;6226928;28;20256;-47
2022/06/30 05:39:47;;;;;;;3.27;3.00;;;;;;;22.10;70.95;97405.88;6226969;28;20263;-47
2022/06/30 05:42:50;;;;;;;3.27;2.97;;;;;;;22.13;70.43;97397.41;6227335;28;20236;-47
2022/06/30 05:45:54;;;;;;;3.70;3.40;;;;;;;22.20;69.82;97381.28;6231358;28;20269;-47
2022/06/30 05:48:56;;;;;;;3.87;3.40;;;;;;;22.40;69.12;97385.69;6232410;28;20236;-48
2022/06/30 05:51:58;;;;;;;3.20;2.90;;;;;;;22.56;67.92;97391.72;6231387;28;20734;-46
2022/06/30 05:55:00;;;;;;;3.40;3.10;;;;;;;22.64;67.29;97388.81;6232026;28;20262;-49
2022/06/30 05:58:04;;;;;;;3.57;3.03;;;;;;;22.80;66.72;97400.00;6230788;28;20279;-48
2022/06/30 06:01:06;;;;;;;3.20;2.90;;;;;;;22.94;66.28;97408.09;6231794;28;20374;-49
2022/06/30 06:04:08;;;;;;;6.13;3.30;;;;;;;22.87;65.62;97423.41;6231819;28;20232;-48
2022/06/30 06:07:10;;;;;;;4.00;3.23;;;;;;;22.85;65.50;97423.63;6230966;28;20243;-50
2022/06/30 06:10:15;;;;;;;4.23;3.20;;;;;;;22.85;65.89;97438.94;6231910;28;20239;-49
2022/06/30 06:13:17;;;;;;;3.00;2.70;;;;;;;22.84;66.58;97448.06;6213205;28;20240;-48
2022/06/30 06:16:19;;;;;;;3.03;2.70;;;;;;;22.88;66.86;97454.66;6230849;28;20281;-49
2022/06/30 06:19:22;;;;;;;3.40;2.90;;;;;;;22.95;66.09;97455.50;6230277;28;20238;-49
2022/06/30 06:22:24;;;;;;;2.70;2.50;;;;;;;23.11;65.94;97469.38;6229459;28;20319;-47
2022/06/30 06:25:26;;;;;;;3.10;2.90;;;;;;;23.38;65.34;97464.78;6230690;28;20232;-52
2022/06/30 06:31:49;;;;;;;3.17;2.97;;;;;;;23.60;64.01;97460.03;6229716;28;20711;-51
2022/06/30 06:34:51;;;;;;;2.90;2.70;;;;;;;23.63;63.29;97459.63;6233669;28;20235;-50
2022/06/30 06:37:53;;;;;;;2.70;2.50;;;;;;;23.76;63.03;97470.34;6230109;28;20284;-49
2022/06/30 06:40:55;;;;;;;3.80;2.67;;;;;;;23.96;62.28;97459.50;6235286;28;20313;-50
2022/06/30 06:43:57;;;;;;;2.67;2.47;;;;;;;24.14;61.57;97451.56;6229706;28;20741;-50
2022/06/30 06:46:59;;;;;;;3.17;2.37;;;;;;;24.31;61.36;97440.28;6212679;28;20373;-47
2022/06/30 06:50:01;;;;;;;5.57;2.80;;;;;;;24.21;60.99;97436.19;6212619;28;20336;-47
2022/06/30 06:53:03;;;;;;;3.78;2.80;;;;;;;24.42;60.20;97442.31;6216861;28;20278;-50
2022/06/30 06:56:06;;;;;;;4.10;2.80;;;;;;;24.63;59.83;97450.06;6211256;28;20330;-50
2022/06/30 06:59:08;;;;;;;2.53;2.33;;;;;;;24.55;58.74;97442.25;6229229;28;20246;-48
2022/06/30 07:02:10;;;;;;;2.65;2.40;;;;;;;24.62;57.63;97443.84;6224630;28;20233;-49
2022/06/30 07:05:12;;;;;;;3.10;2.67;;;;;;;24.83;56.96;97436.44;6207715;28;20237;-48
2022/06/30 07:08:14;;;;;;;3.13;2.28;;;;;;;25.12;56.14;97443.09;6230017;28;20314;-47
2022/06/30 07:11:16;;;;;;;2.00;1.90;;;;;;;25.21;55.92;97430.94;6212357;28;20313;-47
2022/06/30 07:14:18;;;;;;;2.88;2.60;;;;;;;25.41;55.91;97430.75;6229524;28;20313;-46
2022/06/30 07:17:21;;;;;;;2.75;2.30;;;;;;;25.63;55.64;97419.34;6229221;28;20338;-47
2022/06/30 07:20:23;;;;;;;2.50;2.30;;;;;;;25.83;54.67;97412.88;6228139;28;20259;-48
2022/06/30 07:23:25;;;;;;;2.35;2.10;;;;;;;25.93;54.53;97408.59;6229736;28;20231;-48
2022/06/30 07:26:31;;;;;;;2.78;2.58;;;;;;;25.93;53.15;97413.16;6228513;28;20238;-47
2022/06/30 07:29:33;;;;;;;2.63;2.40;;;;;;;26.23;52.62;97408.59;6229526;28;20250;-46
2022/06/30 07:32:36;;;;;;;3.15;2.42;;;;;;;26.60;51.69;97412.06;6229414;28;20749;-49
2022/06/30 07:35:40;;;;;;;2.45;2.22;;;;;;;26.82;51.31;97410.47;6227902;28;20673;-50
2022/06/30 07:38:44;;;;;;;3.00;2.38;;;;;;;27.04;51.30;97415.34;6201507;28;20235;-48
2022/06/30 07:41:48;;;;;;;3.47;2.50;;;;;;;27.28;50.90;97410.75;6222686;28;20236;-47
2022/06/30 07:44:50;;;;;;;2.88;2.20;;;;;;;27.55;50.73;97407.34;6230195;28;20285;-49
2022/06/30 07:47:53;;;;;;;1.95;1.85;;;;;;;27.75;50.46;97412.38;6229248;28;20227;-47
2022/06/30 07:50:55;;;;;;;2.30;2.10;;;;;;;27.63;50.43;97408.91;6227858;28;20362;-47
2022/06/30 07:53:57;;;;;;;2.53;2.33;;;;;;;27.28;51.31;97410.75;6228955;28;20237;-46
2022/06/30 07:57:00;;;;;;;2.88;2.47;;;;;;;27.55;50.63;97412.78;6228231;28;20243;-49
2022/06/30 08:00:24;;;;;;;3.35;2.78;;;;;;;27.33;51.41;97413.59;6228290;28;20830;-46
2022/06/30 08:03:27;;;;;;;3.15;2.03;;;;;;;27.33;52.31;97408.19;6227823;28;20235;-50
2022/06/30 08:06:29;;;;;;;2.50;2.30;;;;;;;27.74;51.26;97405.34;6203665;28;20225;-51
2022/06/30 08:09:31;;;;;;;3.40;2.22;;;;;;;28.14;49.96;97412.66;6206986;28;20316;-50
2022/06/30 08:12:34;;;;;;;2.67;2.40;;;;;;;27.74;51.21;97412.66;6226996;28;20231;-47
2022/06/30 08:15:36;;;;;;;5.05;2.60;;;;;;;27.18;52.01;97414.06;6228205;28;20746;-50
2022/06/30 08:18:39;;;;;;;4.28;2.55;;;;;;;26.69;54.20;97407.13;6227205;28;20725;-49
2022/06/30 08:21:41;;;;;;;6.07;2.67;;;;;;;27.23;53.33;97407.94;6210628;28;20695;-51
2022/06/30 08:24:43;;;;;;;2.70;2.50;;;;;;;27.09;53.13;97407.34;6228182;28;20247;-52
2022/06/30 08:27:45;;;;;;;3.20;2.60;;;;;;;27.06;53.57;97407.78;6228054;28;20318;-49
2022/06/30 08:30:48;;;;;;;2.80;2.60;;;;;;;26.77;53.94;97412.19;6228121;28;20251;-49
2022/06/30 08:33:52;;;;;;;2.90;2.63;;;;;;;26.78;54.39;97411.16;6226783;28;20238;-47
2022/06/30 08:36:55;;;;;;;2.90;2.70;;;;;;;26.97;54.12;97409.19;6227074;28;20332;-49
2022/06/30 08:43:19;;;;;;;2.70;2.45;;;;;;;27.55;53.50;97401.94;6226499;28;20769;-49
2022/06/30 08:46:25;;;;;;;2.75;2.55;;;;;;;28.06;52.60;97404.88;6227790;28;20644;-47
2022/06/30 08:49:28;;;;;;;3.42;2.80;;;;;;;28.39;52.20;97406.91;6227393;28;21054;-49
2022/06/30 08:52:32;;;;;;;2.50;2.30;;;;;;;28.17;50.97;97398.63;6226947;28;20228;-52
2022/06/30 08:55:35;;;;;;;2.92;2.72;;;;;;;28.46;51.15;97394.84;6227122;28;20234;-49
2022/06/30 08:58:39;;;;;;;5.72;2.90;;;;;;;28.59;51.49;97396.44;6227193;28;20234;-49
2022/06/30 10:01:50;;;;;;;3.58;2.20;;;;;;;32.73;40.17;97368.06;5125609;28;22338;-46
2022/06/30 10:04:54;;;;;;;2.97;2.70;;;;;;;31.65;40.19;97369.88;6211256;28;20220;-48
2022/06/30 10:07:58;;;;;;;3.50;2.97;;;;;;;31.96;40.21;97374.38;6207065;28;20282;-52
2022/06/30 10:11:01;;;;;;;4.95;2.90;;;;;;;31.96;39.36;97368.09;6207061;28;20715;-52
2022/06/30 10:14:03;;;;;;;3.55;3.25;;;;;;;32.12;39.77;97365.16;6206782;28;20323;-50
2022/06/30 10:17:07;;;;;;;3.50;3.20;;;;;;;32.63;38.62;97368.84;6206484;28;20607;-51
2022/06/30 10:20:10;;;;;;;3.20;2.90;;;;;;;32.87;39.22;97369.16;6208409;28;20662;-51
2022/06/30 10:23:14;;;;;;;3.70;3.40;;;;;;;33.12;37.84;97356.56;6204890;28;20288;-52
2022/06/30 10:29:55;;;;;;;3.33;3.00;;;;;;;32.59;38.37;97356.81;6205892;28;20232;-53
2022/06/30 10:33:00;;;;;;;2.90;2.63;;;;;;;32.60;39.58;97350.25;6206168;28;20604;-53
2022/06/30 10:36:07;;;;;;;5.88;2.60;;;;;;;33.47;38.01;97342.84;6205876;28;20571;-54
2022/06/30 10:39:24;;;;;;;3.53;3.17;;;;;;;34.04;38.91;97345.09;6206203;28;20220;-51
2022/06/30 10:42:48;;;;;;;4.22;3.10;;;;;;;34.32;36.71;97343.63;6205473;28;20364;-54
2022/06/30 10:46:04;;;;;;;3.28;2.97;;;;;;;33.79;37.66;97339.75;6207133;28;20256;-52
2022/06/30 10:49:10;;;;;;;6.43;3.45;;;;;;;33.82;37.61;97336.47;6207240;28;20268;-54
2022/06/30 10:52:28;;;;;;;2.97;2.78;;;;;;;33.61;38.53;97343.91;6205600;28;20774;-52
2022/06/30 10:55:41;;;;;;;4.72;3.30;;;;;;;33.33;36.61;97341.81;6205394;28;20237;-51
2022/06/30 10:59:10;;;;;;;4.00;3.00;;;;;;;33.62;38.22;97337.34;6222013;28;20595;-47
2022/06/30 11:02:15;;;;;;;4.88;3.40;;;;;;;34.04;37.04;97334.16;6208689;28;20248;-49
2022/06/30 11:05:23;;;;;;;3.78;2.92;;;;;;;34.64;36.01;97331.34;6211840;28;20227;-51
2022/06/30 11:08:39;;;;;;;3.63;3.05;;;;;;;34.72;35.94;97334.28;6231695;28;20301;-53
2022/06/30 11:11:42;;;;;;;3.20;3.00;;;;;;;34.91;36.23;97337.19;6211060;28;20599;-50
2022/06/30 11:14:56;;;;;;;4.18;3.42;;;;;;;35.97;35.43;97337.97;6228417;28;20607;-51
2022/06/30 11:17:59;;;;;;;4.07;3.10;;;;;;;35.81;33.69;97337.38;6228566;28;20235;-48
2022/06/30 11:21:01;;;;;;;4.28;3.88;;;;;;;35.18;35.12;97342.13;6229260;28;20713;-47
2022/06/30 11:24:05;;;;;;;2.90;2.58;;;;;;;35.77;33.83;97335.50;6228078;28;20293;-50
2022/06/30 11:27:24;;;;;;;3.30;3.10;;;;;;;36.67;32.69;97326.28;6228276;28;20668;-51
2022/06/30 11:30:33;;;;;;;4.13;3.03;;;;;;;36.82;32.15;97317.81;6229180;28;20232;-51
2022/06/30 11:34:03;;;;;;;3.88;3.00;;;;;;;37.31;31.66;97317.25;6229216;28;20715;-48
2022/06/30 11:37:05;;;;;;;5.82;3.33;;;;;;;36.92;31.62;97314.88;6204408;28;20232;-49
2022/06/30 11:40:15;;;;;;;3.55;3.22;;;;;;;36.81;32.45;97317.00;6228682;28;20231;-51
2022/06/30 11:43:21;;;;;;;4.32;3.00;;;;;;;36.63;32.94;97312.31;6211009;28;20247;-51
2022/06/30 11:46:26;;;;;;;4.90;3.60;;;;;;;36.63;31.99;97311.50;6212363;28;20240;-48
2022/06/30 11:49:44;;;;;;;3.70;3.40;;;;;;;36.10;32.15;97308.97;6211553;28;20324;-48
2022/06/30 11:52:47;;;;;;;3.75;3.08;;;;;;;36.02;33.06;97301.41;6229021;28;20711;-48
2022/06/30 11:55:52;;;;;;;4.88;3.38;;;;;;;36.42;32.28;97300.81;6229540;28;20243;-46
2022/06/30 11:59:05;;;;;;;3.72;3.42;;;;;;;35.90;32.75;97295.50;6228206;28;20238;-49
2022/06/30 12:02:08;;;;;;;5.53;3.53;;;;;;;35.90;32.97;97290.84;6215921;28;20247;-49
2022/06/30 12:05:13;;;;;;;6.65;3.35;;;;;;;36.02;32.98;97285.72;6225953;28;20734;-48
2022/06/30 12:08:15;;;;;;;5.28;3.45;;;;;;;36.33;32.88;97293.56;6206566;28;20606;-50
2022/06/30 12:11:17;;;;;;;3.28;3.08;;;;;;;36.41;32.41;97298.38;6228713;28;20235;-49
2022/06/30 12:14:19;;;;;;;4.55;3.33;;;;;;;36.16;32.38;97305.03;6201612;28;20307;-51
2022/06/30 12:17:23;;;;;;;3.65;3.35;;;;;;;36.28;33.25;97294.44;6222305;28;20242;-47
2022/06/30 12:20:29;;;;;;;3.40;3.10;;;;;;;36.29;32.39;97295.25;6229087;28;20610;-48
2022/06/30 12:23:31;;;;;;;3.47;3.17;;;;;;;36.73;32.11;97287.44;6229780;28;20714;-50
2022/06/30 12:26:33;;;;;;;4.45;3.63;;;;;;;36.78;31.72;97279.06;6228594;28;20323;-49
2022/06/30 12:29:35;;;;;;;3.70;3.40;;;;;;;36.93;31.90;97278.81;6228247;28;20774;-48
2022/06/30 12:32:38;;;;;;;3.80;3.50;;;;;;;36.86;32.35;97275.63;6228634;28;20258;-49
2022/06/30 12:35:40;;;;;;;4.43;3.58;;;;;;;36.96;31.38;97269.94;6228301;28;20258;-46
2022/06/30 12:38:42;;;;;;;3.75;3.20;;;;;;;36.78;32.18;97276.31;6203558;28;20602;-46
2022/06/30 12:41:44;;;;;;;3.33;3.13;;;;;;;36.40;32.93;97261.00;6225717;28;20234;-51
2022/06/30 12:44:46;;;;;;;5.18;3.60;;;;;;;36.80;32.04;97260.34;6228186;28;20273;-51
2022/06/30 12:47:49;;;;;;;3.47;3.17;;;;;;;36.94;31.72;97255.66;6228696;28;20235;-49
2022/06/30 12:50:50;;;;;;;4.82;3.40;;;;;;;36.58;33.11;97249.97;6228782;28;20282;-49
2022/06/30 12:54:11;;;;;;;4.45;3.85;;;;;;;37.01;31.74;97254.47;6227274;28;20236;-51
2022/06/30 12:57:13;;;;;;;4.07;3.20;;;;;;;37.64;30.84;97247.19;6227319;28;20212;-50
2022/06/30 13:00:15;;;;;;;5.90;3.42;;;;;;;38.54;29.94;97245.41;6209777;28;20346;-49
2022/06/30 13:03:17;;;;;;;3.40;3.10;;;;;;;38.72;29.24;97238.09;6227538;28;20370;-52
2022/06/30 13:06:20;;;;;;;4.63;3.72;;;;;;;39.00;28.57;97252.56;6227976;28;20215;-51
2022/06/30 13:09:28;;;;;;;3.55;3.25;;;;;;;38.99;28.83;97239.88;6227786;28;20228;-49
2022/06/30 13:12:30;;;;;;;3.60;3.40;;;;;;;39.20;28.06;97240.97;6228846;28;20307;-54
2022/06/30 13:15:32;;;;;;;5.78;3.33;;;;;;;39.20;28.42;97229.91;6227264;28;20691;-49
2022/06/30 13:18:34;;;;;;;4.05;3.65;;;;;;;39.59;28.39;97237.38;6227692;28;20759;-54
2022/06/30 13:21:36;;;;;;;3.70;3.38;;;;;;;40.12;27.01;97231.63;6227601;28;20282;-49
2022/06/30 13:24:39;;;;;;;6.65;3.70;;;;;;;40.18;26.51;97226.72;6226641;28;20584;-52
2022/06/30 13:27:41;;;;;;;4.65;3.70;;;;;;;40.39;26.24;97229.69;6228265;28;20232;-52
2022/06/30 13:30:43;;;;;;;5.50;4.03;;;;;;;40.49;26.14;97221.84;6227707;28;20659;-54
2022/06/30 13:33:46;;;;;;;5.32;3.50;;;;;;;40.22;25.40;97213.88;6227716;28;20548;-51
2022/06/30 13:36:49;;;;;;;5.40;4.07;;;;;;;40.56;25.83;97213.84;6224128;28;20223;-51
2022/06/30 13:39:51;;;;;;;4.18;3.38;;;;;;;40.74;24.99;97214.66;6227815;28;20236;-53
2022/06/30 13:42:53;;;;;;;6.03;3.38;;;;;;;41.51;23.87;97212.75;6227077;28;20282;-51
2022/06/30 13:45:55;;;;;;;5.65;3.88;;;;;;;41.38;23.79;97209.06;6227788;28;20700;-50
2022/06/30 13:48:58;;;;;;;4.22;3.92;;;;;;;40.32;24.16;97212.78;6228895;28;20580;-50
2022/06/30 13:52:00;;;;;;;4.35;3.28;;;;;;;40.10;25.12;97206.25;6227446;28;20254;-50
2022/06/30 13:55:03;;;;;;;3.83;3.53;;;;;;;40.20;25.43;97211.44;6227062;28;20591;-49
2022/06/30 13:58:05;;;;;;;5.03;3.53;;;;;;;40.66;24.54;97207.16;6227357;28;20239;-48
2022/06/30 14:01:08;;;;;;;4.75;3.70;;;;;;;41.23;23.71;97193.81;6228168;28;20358;-48
2022/06/30 14:04:10;;;;;;;3.55;3.25;;;;;;;42.16;22.08;97195.53;6227123;28;20834;-47
2022/06/30 14:07:12;;;;;;;4.95;3.22;;;;;;;42.09;22.42;97186.13;6230786;28;20719;-52
2022/06/30 14:10:15;;;;;;;6.80;3.47;;;;;;;43.53;22.12;97192.38;6232635;28;20318;-49
2022/06/30 14:13:18;;;;;;;3.75;3.42;;;;;;;45.10;19.43;97184.63;6232296;28;20326;-51
2022/06/30 14:16:20;;;;;;;3.80;3.35;;;;;;;46.57;18.35;97186.75;6214859;28;20228;-52
2022/06/30 14:19:22;;;;;;;4.38;3.97;;;;;;;47.52;17.41;97187.66;6231772;28;20833;-51
2022/06/30 14:22:24;;;;;;;4.40;3.70;;;;;;;46.73;17.61;97176.31;6231790;28;20252;-52
2022/06/30 14:25:26;;;;;;;4.95;3.85;;;;;;;44.75;20.13;97178.94;6230830;28;20244;-51
2022/06/30 14:28:28;;;;;;;4.32;3.92;;;;;;;45.94;19.17;97179.47;6231132;28;20314;-49
2022/06/30 14:31:30;;;;;;;4.07;3.58;;;;;;;47.36;18.39;97178.63;6231826;28;20259;-49
2022/06/30 14:34:33;;;;;;;4.00;3.67;;;;;;;47.18;16.46;97175.53;6230659;28;20241;-48
2022/06/30 14:37:35;;;;;;;4.97;3.90;;;;;;;46.74;17.47;97171.53;6231216;28;20285;-52
2022/06/30 14:40:37;;;;;;;6.10;4.32;;;;;;;47.90;16.71;97163.47;6230816;28;20235;-51
2022/06/30 14:43:39;;;;;;;4.20;3.90;;;;;;;47.97;16.15;97152.34;6230253;28;20326;-48
2022/06/30 14:46:41;;;;;;;4.82;3.75;;;;;;;47.81;16.16;97146.16;6230856;28;20326;-51
2022/06/30 14:49:43;;;;;;;5.32;4.07;;;;;;;48.51;16.11;97146.25;6231120;28;20239;-52
2022/06/30 14:52:46;;;;;;;4.03;3.63;;;;;;;49.50;14.87;97146.34;6230621;28;20741;-49
2022/06/30 14:55:48;;;;;;;4.78;3.53;;;;;;;49.40;15.94;97135.81;6231161;28;20228;-49
2022/06/30 14:58:50;;;;;;;3.47;3.17;;;;;;;49.61;15.92;97138.78;6230464;28;20231;-53
2022/06/30 15:01:52;;;;;;;3.97;3.58;;;;;;;49.88;15.79;97130.94;6218140;28;20797;-47
2022/06/30 15:04:54;;;;;;;5.00;3.67;;;;;;;49.60;16.58;97120.34;6220608;28;20237;-50
2022/06/30 15:07:57;;;;;;;4.60;3.47;;;;;;;49.91;16.26;97132.16;6213329;28;20235;-51
2022/06/30 15:11:00;;;;;;;4.15;3.75;;;;;;;49.73;14.61;97118.78;6230065;28;20227;-51
2022/06/30 15:14:03;;;;;;;7.00;3.85;;;;;;;48.91;14.67;97125.03;6229487;28;20228;-48
2022/06/30 15:17:05;;;;;;;5.35;3.40;;;;;;;49.03;16.78;97124.69;6229109;28;20236;-51
2022/06/30 15:20:08;;;;;;;3.90;3.60;;;;;;;47.50;16.06;97113.72;6230039;28;20726;-52
2022/06/30 15:26:31;;;;;;;4.05;3.47;;;;;;;48.70;14.65;97109.59;6229848;28;20305;-49
2022/06/30 15:29:33;;;;;;;4.80;3.58;;;;;;;48.93;16.21;97108.59;6229781;28;20254;-50
2022/06/30 15:32:35;;;;;;;3.63;3.25;;;;;;;48.48;15.92;97104.97;6230197;28;20326;-51
2022/06/30 15:35:37;;;;;;;3.72;3.40;;;;;;;47.99;17.23;97097.59;6229212;28;20252;-53
2022/06/30 15:38:39;;;;;;;4.53;3.38;;;;;;;48.46;15.22;97095.34;6231051;28;20707;-50
2022/06/30 15:41:41;;;;;;;5.63;3.17;;;;;;;48.88;15.95;97095.75;6229911;28;20314;-50
2022/06/30 15:44:47;;;;;;;6.00;3.90;;;;;;;47.97;15.50;97077.56;6229212;28;20236;-53